Flight Track Log - Related Links

Times and Time Zones

All times are in EDT time to prevent confusion due to time zone crossing. See the RPA3392 flight status page for this flight to view local times or setup timezone preferences in your user account.

Time Position Orientation Groundspeed Altitude Reporting Facility
EDT Latitude Longitude Course Direction KTS MPH feet Rate Location/Type
Fri 06:06:08 PM 44.8500 -93.2167 117° Southeast 151 174 2,200  Level Minneapolis TRACON
Fri 06:06:49 PM 44.8358 -93.1917 129° Southeast 156 180 3,000 1,223 Climbing Minneapolis Center
Fri 06:07:51 PM 44.8064 -93.1111 117° Southeast 237 273 4,300 1,839 Climbing Minneapolis Center
Fri 06:08:00 PM 44.7502 -92.7417 111° Southeast  Level Estimated
Fri 06:08:53 PM 44.7767 -93.0111 113° Southeast 273 314 6,800  Level Minneapolis Center
Fri 06:09:00 PM 44.7058 -92.5822 113° Southeast  Level Estimated
Fri 06:09:55 PM 44.7475 -92.9033 111° Southeast 290 334 9,200  Level Minneapolis Center
Fri 06:10:00 PM 44.6612 -92.4229 125° Southeast  Level Estimated
Fri 06:10:56 PM 44.7158 -92.7886 111° Southeast 312 359 11,000  Level Minneapolis Center
Fri 06:11:00 PM 44.6164 -92.2639 117° Southeast  Level Estimated
Fri 06:11:58 PM 44.6817 -92.6617 111° Southeast 344 396 13,200  Level Minneapolis Center
Fri 06:13:00 PM 44.6381 -92.5128 112° Southeast 347 399 15,500 1,839 Climbing Minneapolis Center
Fri 06:14:02 PM 44.5903 -92.3881 118° Southeast 368 423 17,000 1,258 Climbing Minneapolis Center
Fri 06:15:04 PM 44.5511 -92.2858 118° Southeast 370 426 18,100 1,306 Climbing Minneapolis Center
Fri 06:16:06 PM 44.4919 -92.1325 118° Southeast 373 429 19,700 1,355 Climbing Minneapolis Center
Fri 06:17:08 PM 44.4406 -91.9981 118° Southeast 386 444 20,900 1,161 Climbing Minneapolis Center
Fri 06:18:10 PM 44.3886 -91.8636 118° Southeast 392 451 22,100 1,161 Climbing Minneapolis Center
Fri 06:19:12 PM 44.3261 -91.6983 118° Southeast 400 460 23,300 1,016 Climbing Minneapolis Center
Fri 06:20:14 PM 44.2711 -91.5606 119° Southeast 405 466 24,200 823 Climbing Minneapolis Center
Fri 06:21:16 PM 44.2167 -91.4189 118° Southeast 413 475 25,000 871 Climbing Minneapolis Center
Fri 06:22:18 PM 44.1564 -91.2644 119° Southeast 419 482 26,000 889 Climbing Minneapolis Center
Fri 06:23:31 PM 44.0994 -91.1189 119° Southeast 428 493 27,000 926 Climbing Minneapolis Center
Fri 06:24:34 PM 44.0300 -90.9419 119° Southeast 435 501 28,100 960 Climbing Minneapolis Center
Fri 06:25:36 PM 43.9703 -90.7931 119° Southeast 444 511 29,000 1,016 Climbing Minneapolis Center
Fri 06:26:38 PM 43.9100 -90.6436 119° Southeast 446 513 30,200 1,122 Climbing Minneapolis Center
Fri 06:27:39 PM 43.8431 -90.4731 119° Southeast 450 518 31,300 1,024 Climbing Minneapolis Center
Fri 06:28:41 PM 43.7917 -90.3478 120° Southeast 449 517 32,300 823 Climbing Minneapolis Center
Fri 06:29:43 PM 43.7192 -90.1739 120° Southeast 447 514 33,000 339 Climbing Minneapolis Center
Fri 06:30:45 PM 43.6781 -90.0464 114° Southeast 442 509 33,000  Level Minneapolis Center
Fri 06:31:47 PM 43.6442 -89.8250 102° East 440 506 33,000  Level Minneapolis Center
Fri 06:32:49 PM 43.6167 -89.6617 103° East 439 505 33,000  Level Minneapolis Center
Fri 06:33:20 PM 43.6003 -89.5808 106° East 438 504 33,000  Level Chicago Center
Fri 06:34:22 PM 43.5714 -89.4164 104° East 440 506 33,000  Level Chicago Center
Fri 06:35:24 PM 43.5417 -89.2525 104° East 440 506 33,000  Level Chicago Center
Fri 06:36:27 PM 43.5058 -89.0628 105° East 440 506 33,000  Level Chicago Center
Fri 06:37:29 PM 43.4761 -88.9008 104° East 439 505 33,000  Level Chicago Center
Fri 06:38:31 PM 43.4456 -88.7386 104° East 439 505 33,000  Level Chicago Center
Fri 06:39:33 PM 43.4119 -88.5606 105° East 438 504 33,000  Level Chicago Center
Fri 06:40:35 PM 43.3794 -88.3958 105° East 439 505 33,000  Level Chicago Center
Fri 06:41:37 PM 43.3497 -88.2372 104° East 437 503 33,000  Level Chicago Center
Fri 06:42:39 PM 43.3189 -88.0775 105° East 435 501 33,000  Level Chicago Center
Fri 06:43:41 PM 43.2889 -87.9175 104° East 434 499 33,000  Level Chicago Center
Fri 06:44:43 PM 43.2511 -87.7283 105° East 438 504 33,000  Level Chicago Center
Fri 06:45:45 PM 43.2186 -87.5672 105° East 439 505 33,000  Level Chicago Center
Fri 06:46:48 PM 43.1872 -87.4064 105° East 438 504 33,000  Level Chicago Center
Fri 06:47:50 PM 43.1536 -87.2408 105° East 437 503 33,000  Level Chicago Center
Fri 06:48:52 PM 43.1214 -87.0819 105° East 435 501 33,000  Level Chicago Center
Fri 06:49:54 PM 43.0886 -86.9242 106° East 435 501 33,000  Level Chicago Center
Fri 06:50:56 PM 43.0569 -86.7653 105° East 435 501 33,000  Level Chicago Center
Fri 06:51:58 PM 43.0167 -86.5742 106° East 438 504 33,000  Level Chicago Center
Fri 06:53:00 PM 42.9839 -86.4150 106° East 438 504 33,000  Level Chicago Center
Fri 06:54:02 PM 42.9511 -86.2592 106° East 433 498 33,000  Level Chicago Center
Fri 06:55:04 PM 42.9167 -86.1047 107° East 434 499 33,000  Level Chicago Center
Fri 06:56:06 PM 42.8775 -85.9142 106° East 439 505 33,000  Level Chicago Center
Fri 06:57:09 PM 42.8433 -85.7597 107° East 440 506 33,000  Level Chicago Center
Fri 06:58:11 PM 42.8094 -85.6025 106° East 438 504 33,000  Level Chicago Center
Fri 06:59:13 PM 42.7692 -85.4456 109° East 444 511 33,000  Level Chicago Center
Fri 07:00:15 PM 42.7169 -85.2964 115° Southeast 441 507 33,000  Level Chicago Center
Fri 07:01:17 PM 42.6542 -85.1175 115° Southeast 439 505 33,000  Level Chicago Center
Fri 07:02:19 PM 42.6000 -84.9675 116° Southeast 443 510 33,000  Level Chicago Center
Fri 07:03:21 PM 42.5478 -84.8181 115° Southeast 441 507 33,000  Level Chicago Center
Fri 07:04:23 PM 42.4933 -84.6678 116° Southeast 445 512 33,000  Level Chicago Center
Fri 07:05:25 PM 42.4394 -84.5172 116° Southeast 445 512 33,000  Level Chicago Center
Fri 07:06:32 PM 42.3736 -84.3469 118° Southeast 437 503 33,000  Level Cleveland Center
Fri 07:07:32 PM 42.3178 -84.1975 117° Southeast 437 503 33,000  Level Cleveland Center
Fri 07:08:32 PM 42.2583 -84.0314 116° Southeast 437 503 33,000  Level Cleveland Center
Fri 07:09:32 PM 42.2044 -83.8825 116° Southeast 437 503 33,000  Level Cleveland Center
Fri 07:10:32 PM 42.1481 -83.7339 117° Southeast 437 503 33,000  Level Cleveland Center
Fri 07:11:32 PM 42.0894 -83.5856 118° Southeast 442 509 33,000  Level Cleveland Center
Fri 07:12:32 PM 42.0369 -83.4406 116° Southeast 437 503 33,000  Level Cleveland Center
Fri 07:13:32 PM 41.9631 -83.3031 126° Southeast 442 509 33,000  Level Cleveland Center
Fri 07:14:32 PM 41.8933 -83.1661 124° Southeast 447 514 33,000  Level Cleveland Center
Fri 07:15:32 PM 41.8211 -83.0325 126° Southeast 447 514 33,000  Level Cleveland Center
Fri 07:16:32 PM 41.7508 -82.9017 126° Southeast 442 509 33,000  Level Cleveland Center
Fri 07:17:32 PM 41.6678 -82.7819 133° Southeast 442 509 33,000  Level Cleveland Center
Fri 07:18:32 PM 41.5803 -82.6761 138° Southeast 428 493 33,000  Level Cleveland Center
Fri 07:19:32 PM 41.4986 -82.5736 137° Southeast 436 502 33,000  Level Cleveland Center
Fri 07:20:32 PM 41.4108 -82.4658 137° Southeast 436 502 33,000  Level Cleveland Center
Fri 07:21:32 PM 41.3186 -82.3581 139° Southeast 436 502 33,000  Level Cleveland Center
Fri 07:22:32 PM 41.2306 -82.2508 138° Southeast 436 502 33,000  Level Cleveland Center
Fri 07:23:32 PM 41.1425 -82.1408 137° Southeast 436 502 33,000  Level Cleveland Center
Fri 07:24:32 PM 41.0522 -82.0342 138° Southeast 436 502 33,000  Level Cleveland Center
Fri 07:25:32 PM 40.9639 -81.9278 138° Southeast 436 502 33,000  Level Cleveland Center
Fri 07:26:32 PM 40.8714 -81.8214 139° Southeast 436 502 33,000  Level Cleveland Center
Fri 07:27:32 PM 40.7828 -81.7128 137° Southeast 436 502 33,000  Level Cleveland Center
Fri 07:28:32 PM 40.6942 -81.6072 138° Southeast 436 502 33,000  Level Cleveland Center
Fri 07:29:32 PM 40.6056 -81.4992 137° Southeast 436 502 33,000  Level Cleveland Center
Fri 07:30:32 PM 40.5247 -81.4081 139° Southeast 436 502 33,000  Level Cleveland Center
Fri 07:31:32 PM 40.4214 -81.2786 136° Southeast 431 496 33,000  Level Cleveland Center
Fri 07:32:32 PM 40.3325 -81.1767 139° Southeast 436 502 33,000  Level Cleveland Center
Fri 07:33:32 PM 40.2453 -81.0753 138° Southeast 436 502 33,000  Level Cleveland Center
Fri 07:34:32 PM 40.1583 -80.9714 138° Southeast 436 502 33,000  Level Cleveland Center
Fri 07:35:32 PM 40.0689 -80.8706 139° Southeast 431 496 33,000  Level Cleveland Center
Fri 07:36:32 PM 39.9836 -80.7647 136° Southeast 431 496 33,000  Level Cleveland Center
Fri 07:37:32 PM 39.9025 -80.6533 133° Southeast 425 489 33,000  Level Cleveland Center
Fri 07:38:32 PM 39.8211 -80.5397 133° Southeast 425 489 33,000  Level Cleveland Center
Fri 07:39:32 PM 39.7419 -80.4292 133° Southeast 425 489 33,000  Level Cleveland Center
Fri 07:40:32 PM 39.6603 -80.3189 134° Southeast 425 489 33,000 -104 Level Cleveland Center
Fri 07:41:27 PM 39.5931 -80.2292 134° Southeast 423 487 32,800 -828 Descending Washington Center
Fri 07:42:28 PM 39.5100 -80.1133 133° Southeast 423 487 31,400 -893 Descending Washington Center
Fri 07:43:28 PM 39.4267 -80.0008 134° Southeast 423 487 31,000 -198 Descending Washington Center
Fri 07:44:29 PM 39.3453 -79.8911 134° Southeast 423 487 31,000  Level Washington Center
Fri 07:45:27 PM 39.2897 -79.7511 117° Southeast 423 487 31,000  Level Washington Center
Fri 07:46:28 PM 39.2786 -79.5867 95° East 423 487 31,000 -98 Level Washington Center
Fri 07:47:29 PM 39.2672 -79.4225 95° East 439 505 30,800 -1,361 Descending Washington Center
Fri 07:48:27 PM 39.2500 -79.2394 97° East 451 519 28,300 -2,034 Descending Washington Center
Fri 07:49:27 PM 39.2339 -79.0778 97° East 451 519 26,800 -1,339 Descending Washington Center
Fri 07:50:28 PM 39.2197 -78.9217 97° East 451 519 25,600 -1,770 Descending Washington Center
Fri 07:51:29 PM 39.2050 -78.7683 97° East 445 512 23,200 -2,300 Descending Washington Center
Fri 07:52:28 PM 39.1900 -78.6178 97° East 434 499 21,000 -2,218 Descending Washington Center
Fri 07:53:28 PM 39.1769 -78.4753 97° East 421 484 18,800 -2,083 Descending Washington Center
Fri 07:54:29 PM 39.1572 -78.3328 100° East 410 472 16,800 -1,563 Descending Washington Center
Fri 07:55:27 PM 39.1228 -78.2003 108° East 391 450 15,700 -1,059 Descending Washington Center
Fri 07:56:28 PM 39.0900 -78.0708 108° East 384 442 14,700 -1,091 Descending Washington Center
Fri 07:57:28 PM 39.0572 -77.9439 108° East 379 436 13,500 -1,240 Descending Washington Center
Fri 07:58:29 PM 39.0281 -77.8281 108° East 379 436 12,200 -1,261 Descending Washington Center
Fri 07:59:27 PM 38.9931 -77.6936 108° East 368 423 11,000 -1,119 Descending Washington Center
Fri 08:00:27 PM 38.9575 -77.5697 110° East 362 417 10,000 -789 Descending Washington Center
Fri 08:00:43 PM 38.9500 -77.5333 105° East 349 402 10,000 -2,053 Level Potomac TRACON
Fri 08:01:43 PM 38.9667 -77.4333 78° East 300 345 7,400 -1,900 Descending Potomac TRACON
Fri 08:02:43 PM 38.9667 -77.3333 90° East 280 322 6,200 -1,240 Descending Potomac TRACON
Fri 08:03:44 PM 38.9667 -77.2333 90° East 258 297 4,900 -1,785 Descending Potomac TRACON
Fri 08:04:44 PM 38.9667 -77.1500 90° East 205 236 2,600 -1,650 Descending Potomac TRACON
Fri 08:05:44 PM 38.9333 -77.1167 142° Southeast 158 182 1,600 -1,000 Descending Potomac TRACON

Login

Don't have an account? Register now (free) for customized features, flight alerts, and more!